Time;durP1;ratioP1;P1;durP2;ratioP2;P2;SDS_P1;SDS_P2;PMS_P1;PMS_P2;Temp;Humidity;BMP_temperature;BMP_pressure;BME280_temperature;BME280_humidity;BME280_pressure;Samples;Min_cycle;Max_cycle;Signal;HPM_P1;HPM_P2
2022/06/06 00:01:59;;;;;;;2.00;1.80;;;;;;;21.83;51.82;101124.31;5115345;27;20032;-61
2022/06/06 00:04:27;;;;;;;2.05;1.60;;;;;;;21.83;51.63;101121.59;5104616;28;20665;-60
2022/06/06 00:06:56;;;;;;;1.73;1.63;;;;;;;21.78;52.05;101106.94;5113538;28;20032;-60
2022/06/06 00:09:22;;;;;;;1.90;1.70;;;;;;;21.79;51.78;101111.31;5105594;28;20032;-60
2022/06/06 00:11:49;;;;;;;1.85;1.60;;;;;;;21.82;51.80;101105.56;5104537;28;20039;-60
2022/06/06 00:14:16;;;;;;;1.90;1.65;;;;;;;21.81;51.61;101102.00;5111966;28;20032;-60
2022/06/06 00:16:41;;;;;;;2.38;1.95;;;;;;;21.81;51.68;101107.41;5113783;28;20031;-59
2022/06/06 00:19:07;;;;;;;2.00;1.83;;;;;;;21.81;51.75;101107.41;5106790;28;20028;-60
2022/06/06 00:21:34;;;;;;;1.80;1.50;;;;;;;21.77;51.83;101102.56;5109637;28;20587;-60
2022/06/06 00:23:59;;;;;;;1.83;1.60;;;;;;;21.77;51.71;101106.09;5114808;28;20055;-60
2022/06/06 00:26:29;;;;;;;2.35;1.98;;;;;;;21.80;51.79;101113.88;5107009;28;20024;-60
2022/06/06 00:28:55;;;;;;;2.13;1.85;;;;;;;21.80;51.97;101099.50;5114328;28;20067;-60
2022/06/06 00:36:48;;;;;;;2.00;1.80;;;;;;;21.79;51.85;101114.91;5103618;28;20454;-60
2022/06/06 00:39:16;;;;;;;1.90;1.70;;;;;;;21.73;51.85;101109.34;5110451;28;20043;-60
2022/06/06 00:41:49;;;;;;;1.90;1.70;;;;;;;21.77;51.71;101116.09;5108904;28;20048;-60
2022/06/06 00:44:22;;;;;;;3.17;2.08;;;;;;;21.61;51.72;101082.72;5105191;28;20108;-60
2022/06/06 00:47:03;;;;;;;2.33;1.88;;;;;;;21.78;51.98;101117.75;5107250;28;20068;-61
2022/06/06 00:49:39;;;;;;;2.33;1.80;;;;;;;21.77;51.74;101114.22;5108829;28;20085;-60
2022/06/06 00:52:10;;;;;;;2.00;1.80;;;;;;;21.75;51.83;101110.88;5102080;28;20032;-60
2022/06/06 00:54:35;;;;;;;3.00;2.35;;;;;;;21.77;51.99;101124.22;5091111;28;20027;-60
2022/06/06 00:57:05;;;;;;;2.20;2.00;;;;;;;21.77;51.70;101121.50;5089896;28;20042;-60
2022/06/06 00:59:34;;;;;;;2.25;1.98;;;;;;;21.77;51.72;101116.09;5103656;28;20042;-60
2022/06/06 01:02:00;;;;;;;;;;;;;;;21.75;51.84;101124.41;5105983;28;20034;-57
2022/06/06 01:04:27;;;;;;;2.47;2.20;;;;;;;21.75;51.60;101121.69;5091951;28;19912;-60
2022/06/06 01:06:53;;;;;;;2.30;2.00;;;;;;;21.75;51.66;101118.13;5083920;28;20028;-60
2022/06/06 01:09:20;;;;;;;2.17;1.98;;;;;;;21.74;51.67;101133.53;5107689;28;20492;-60
2022/06/06 01:11:49;;;;;;;2.17;1.88;;;;;;;21.73;51.82;101123.72;5105338;28;20027;-60
2022/06/06 01:14:18;;;;;;;2.63;2.13;;;;;;;21.73;51.54;101125.59;5107360;28;20035;-60
2022/06/06 01:16:51;;;;;;;2.30;2.03;;;;;;;21.73;51.72;101126.44;5089252;28;20043;-61
2022/06/06 01:19:47;;;;;;;2.28;2.08;;;;;;;21.74;51.63;101132.69;5088728;28;20027;-61
2022/06/06 01:22:18;;;;;;;2.35;2.10;;;;;;;21.73;51.71;101120.19;5103829;28;20039;-61
2022/06/06 01:25:13;;;;;;;2.63;1.80;;;;;;;21.73;51.65;101121.03;5103222;28;20051;-60
2022/06/06 01:27:58;;;;;;;2.42;2.05;;;;;;;21.73;51.80;101129.13;5105742;28;20040;-61
2022/06/06 01:30:28;;;;;;;2.70;2.22;;;;;;;21.71;51.64;101132.03;5092880;28;20046;-60
2022/06/06 01:32:56;;;;;;;2.55;2.10;;;;;;;21.71;51.52;101129.34;5106336;28;20027;-60
2022/06/06 01:35:28;;;;;;;2.47;2.20;;;;;;;21.71;51.71;101118.50;5105721;28;20063;-60
2022/06/06 01:37:54;;;;;;;2.45;2.20;;;;;;;21.70;51.87;101127.63;5107974;28;20046;-60
2022/06/06 01:40:20;;;;;;;2.50;2.30;;;;;;;21.70;51.75;101133.03;5103036;28;20052;-60
2022/06/06 01:42:56;;;;;;;2.45;2.05;;;;;;;21.70;51.71;101137.63;5106115;28;20091;-60
2022/06/06 01:45:31;;;;;;;2.75;2.45;;;;;;;21.69;51.66;101150.31;5086854;28;20023;-60
2022/06/06 01:48:07;;;;;;;2.60;2.33;;;;;;;21.67;51.44;101143.41;5109939;28;20035;-60
2022/06/06 01:50:35;;;;;;;2.50;2.30;;;;;;;21.69;51.55;101147.59;5087812;28;20035;-59
2022/06/06 01:53:05;;;;;;;3.03;2.63;;;;;;;21.69;51.40;101158.44;5108402;28;20027;-60
2022/06/06 01:55:32;;;;;;;3.15;2.28;;;;;;;21.69;51.71;101142.19;5114919;28;20073;-60
2022/06/06 01:58:04;;;;;;;3.28;2.40;;;;;;;21.68;51.62;101143.22;5102237;28;20012;-60
2022/06/06 02:00:31;;;;;;;2.63;2.22;;;;;;;21.68;51.42;101150.50;5091643;28;20028;-60
2022/06/06 02:02:57;;;;;;;3.58;2.63;;;;;;;21.67;51.55;101155.06;5107972;28;20120;-60
2022/06/06 02:05:22;;;;;;;2.83;2.47;;;;;;;21.67;51.51;101151.53;5110198;28;20625;-57
2022/06/06 02:07:47;;;;;;;3.53;2.72;;;;;;;21.66;51.55;101158.81;5110104;28;20032;-60
2022/06/06 02:10:14;;;;;;;2.88;2.58;;;;;;;21.67;51.56;101146.13;5113321;28;20026;-58
2022/06/06 02:12:41;;;;;;;2.88;2.50;;;;;;;21.68;51.51;101139.69;5104817;28;20411;-58
2022/06/06 02:15:08;;;;;;;2.92;2.45;;;;;;;21.65;51.43;101140.03;5093395;28;20039;-58
2022/06/06 02:17:34;;;;;;;3.10;2.70;;;;;;;21.62;51.47;101132.25;5106836;28;20035;-60
2022/06/06 02:20:02;;;;;;;3.80;2.90;;;;;;;21.64;51.75;101138.34;5100632;28;20024;-60
2022/06/06 02:22:27;;;;;;;3.97;3.00;;;;;;;21.65;51.68;101134.63;5103500;28;20040;-60
2022/06/06 02:24:53;;;;;;;3.00;2.50;;;;;;;21.64;51.68;101131.06;5110821;28;20028;-60
2022/06/06 02:27:18;;;;;;;3.72;3.03;;;;;;;21.64;51.72;101128.38;5110994;28;20019;-60
2022/06/06 02:29:43;;;;;;;3.22;2.92;;;;;;;21.58;51.67;101123.69;5105818;28;20028;-59
2022/06/06 02:32:09;;;;;;;2.70;2.33;;;;;;;21.62;51.59;101132.25;5084522;28;20031;-61
2022/06/06 02:34:34;;;;;;;3.00;2.63;;;;;;;21.63;51.38;101140.22;5110062;28;20031;-60
2022/06/06 02:37:00;;;;;;;3.30;2.90;;;;;;;21.64;51.73;101151.88;5106996;28;20019;-60
2022/06/06 02:39:26;;;;;;;3.92;3.38;;;;;;;21.61;51.61;101136.84;5108727;28;20032;-59
2022/06/06 02:41:51;;;;;;;3.63;3.00;;;;;;;21.62;51.47;101143.97;5113155;28;20028;-60
2022/06/06 02:44:16;;;;;;;4.07;3.05;;;;;;;21.61;51.66;101134.13;5111247;28;20016;-60
2022/06/06 02:46:41;;;;;;;4.30;3.28;;;;;;;21.61;51.40;101138.72;5107606;28;20468;-60
2022/06/06 02:49:08;;;;;;;3.60;3.30;;;;;;;21.59;51.65;101128.06;5114154;28;20051;-60
2022/06/06 02:51:33;;;;;;;3.83;3.10;;;;;;;21.61;51.50;101138.72;5106902;28;20083;-60
2022/06/06 02:54:01;;;;;;;3.78;3.22;;;;;;;21.61;51.42;101146.81;5104603;28;20098;-60
2022/06/06 02:56:26;;;;;;;4.05;3.17;;;;;;;21.58;51.61;101130.94;5110119;28;20026;-60
2022/06/06 02:58:52;;;;;;;3.95;3.00;;;;;;;21.60;51.48;101139.72;5106365;28;20047;-60
2022/06/06 03:01:17;;;;;;;3.67;2.90;;;;;;;21.58;51.34;101134.50;5108252;28;20020;-60
2022/06/06 03:03:43;;;;;;;3.35;3.05;;;;;;;21.60;51.62;101139.72;5091050;28;20024;-60
2022/06/06 03:06:43;;;;;;;4.03;3.47;;;;;;;21.59;51.27;101143.47;5107376;28;20035;-61
2022/06/06 03:09:43;;;;;;;3.95;3.20;;;;;;;21.59;51.42;101135.34;5090870;28;20054;-60
2022/06/06 03:12:44;;;;;;;3.80;3.08;;;;;;;21.58;51.43;101131.81;5044489;28;20029;-59
2022/06/06 03:15:16;;;;;;;3.78;3.25;;;;;;;21.57;51.42;101129.25;5033538;28;20064;-57
2022/06/06 03:20:46;;;;;;;3.08;2.78;;;;;;;21.56;51.35;101131.13;5035548;28;20056;-59
2022/06/06 03:23:36;;;;;;;4.40;3.38;;;;;;;21.57;51.35;101134.69;5048015;28;20033;-59
2022/06/06 03:26:40;;;;;;;3.85;3.35;;;;;;;21.55;51.18;101129.47;5047019;28;20046;-59
2022/06/06 03:29:13;;;;;;;3.67;3.38;;;;;;;21.55;51.51;101129.47;4962075;29;20050;-60
2022/06/06 03:31:47;;;;;;;3.90;3.22;;;;;;;21.55;51.46;101128.63;4960666;29;20039;-59
2022/06/06 03:34:19;;;;;;;4.35;3.45;;;;;;;21.54;51.57;101133.19;4956856;28;20059;-58
2022/06/06 03:36:50;;;;;;;4.57;3.40;;;;;;;21.54;51.63;101126.94;4959189;28;20045;-59
2022/06/06 03:39:35;;;;;;;6.22;3.45;;;;;;;21.55;51.22;101139.44;4957944;29;20053;-58
2022/06/06 03:42:10;;;;;;;3.97;3.47;;;;;;;21.45;51.52;101135.13;4948711;29;20047;-51
2022/06/06 03:44:54;;;;;;;6.53;3.80;;;;;;;21.54;51.54;101148.59;4957773;29;20050;-55
2022/06/06 03:47:42;;;;;;;3.80;3.40;;;;;;;21.50;51.30;101142.69;5013537;28;20105;-58
2022/06/06 03:50:17;;;;;;;4.43;3.22;;;;;;;21.55;51.33;101150.25;5000384;28;20030;-59
2022/06/06 03:53:00;;;;;;;3.50;3.20;;;;;;;21.54;51.43;101149.44;5014390;28;20050;-57
2022/06/06 03:55:42;;;;;;;4.15;3.75;;;;;;;21.54;51.43;101143.19;5004510;28;20026;-59
2022/06/06 03:58:10;;;;;;;4.50;3.50;;;;;;;21.53;51.32;101150.41;5018346;28;20110;-58
2022/06/06 04:00:38;;;;;;;4.10;3.70;;;;;;;21.54;51.41;101143.19;5001359;28;20041;-54
2022/06/06 04:03:05;;;;;;;4.22;3.40;;;;;;;21.54;51.46;101149.44;5011845;28;20038;-58
2022/06/06 04:05:31;;;;;;;4.78;3.72;;;;;;;21.55;51.15;101150.25;5089491;28;20043;-54
2022/06/06 04:07:56;;;;;;;4.32;3.75;;;;;;;21.55;51.39;101156.50;5110303;28;20028;-59
2022/06/06 04:10:24;;;;;;;5.25;3.92;;;;;;;21.55;51.31;101151.09;5107256;28;20023;-60
2022/06/06 04:13:22;;;;;;;5.63;3.80;;;;;;;21.57;51.08;101151.75;5093919;28;20027;-59
2022/06/06 04:16:09;;;;;;;5.17;3.90;;;;;;;21.58;51.11;101168.81;5098397;28;20127;-60
2022/06/06 04:18:52;;;;;;;5.60;4.00;;;;;;;21.58;51.41;101166.13;5110249;27;20797;-57
2022/06/06 04:21:24;;;;;;;4.88;4.00;;;;;;;21.59;50.99;101170.53;5089697;28;20028;-59
2022/06/06 04:24:20;;;;;;;4.72;3.83;;;;;;;21.59;51.21;101173.22;5105557;28;20054;-58
2022/06/06 04:27:10;;;;;;;5.07;3.72;;;;;;;21.59;51.35;101175.94;5115209;27;20016;-59
2022/06/06 04:29:43;;;;;;;4.72;3.78;;;;;;;21.56;51.14;101171.72;5089277;28;20536;-58
2022/06/06 04:32:24;;;;;;;4.82;3.88;;;;;;;21.58;51.12;101176.94;5111207;28;20047;-58
2022/06/06 04:34:56;;;;;;;5.00;3.53;;;;;;;21.58;51.24;101171.53;5093411;28;20164;-55
2022/06/06 04:37:29;;;;;;;4.47;3.90;;;;;;;21.57;51.16;101167.16;5091962;28;20027;-57
2022/06/06 04:40:14;;;;;;;5.05;3.65;;;;;;;21.58;50.99;101171.53;5084518;28;20036;-59
2022/06/06 04:42:47;;;;;;;4.60;3.60;;;;;;;21.57;51.22;101165.28;5089902;28;20029;-58
2022/06/06 04:45:30;;;;;;;4.20;3.60;;;;;;;21.52;51.25;101159.56;5089938;28;20373;-58
2022/06/06 04:47:56;;;;;;;4.20;3.58;;;;;;;21.57;51.18;101169.84;5098125;28;20036;-59
2022/06/06 04:50:22;;;;;;;3.88;3.38;;;;;;;21.58;51.25;101176.94;5089144;28;20119;-59
2022/06/06 04:52:54;;;;;;;4.30;3.85;;;;;;;21.57;51.23;101170.69;5104027;27;20031;-59
2022/06/06 04:55:20;;;;;;;4.82;4.32;;;;;;;21.58;51.47;101185.06;5102494;28;20059;-59
2022/06/06 04:57:49;;;;;;;4.07;3.58;;;;;;;21.58;51.24;101185.91;5107697;28;20106;-59
2022/06/06 05:00:15;;;;;;;;;;;;;;;21.58;51.23;101185.06;5104279;28;20020;-59
2022/06/06 05:02:40;;;;;;;5.45;4.03;;;;;;;21.55;51.08;101180.88;5108596;27;19919;-57
2022/06/06 05:05:06;;;;;;;3.90;3.50;;;;;;;21.58;51.19;101185.91;5107369;28;20131;-59
2022/06/06 05:07:53;;;;;;;4.38;3.65;;;;;;;21.58;51.11;101190.47;5107347;28;20023;-59
2022/06/06 05:10:24;;;;;;;4.88;3.95;;;;;;;21.57;51.24;101197.75;5106668;28;20024;-59
2022/06/06 05:13:08;;;;;;;4.45;3.90;;;;;;;21.57;51.08;101186.09;5091380;28;20633;-55
2022/06/06 05:15:55;;;;;;;5.22;3.67;;;;;;;21.57;51.16;101191.50;5105488;28;20020;-52
2022/06/06 05:18:36;;;;;;;6.28;4.25;;;;;;;21.55;51.32;101191.69;5088674;28;20034;-56
2022/06/06 05:21:13;;;;;;;7.97;4.38;;;;;;;21.55;51.47;101191.69;5106154;28;20392;-56
2022/06/06 05:23:55;;;;;;;7.10;4.35;;;;;;;21.56;51.25;101189.81;5087276;28;20024;-54
2022/06/06 05:26:34;;;;;;;4.93;3.50;;;;;;;21.54;51.18;101178.34;5108395;28;20052;-54
2022/06/06 05:29:21;;;;;;;4.90;4.05;;;;;;;21.55;51.39;101185.44;5088636;28;20562;-55
2022/06/06 05:32:05;;;;;;;5.43;4.15;;;;;;;21.53;51.29;101179.34;5105359;28;20081;-54
2022/06/06 05:34:47;;;;;;;4.93;4.20;;;;;;;21.55;51.23;101180.88;5103294;28;20049;-55
2022/06/06 05:37:23;;;;;;;4.85;3.65;;;;;;;21.55;51.37;101180.88;5086097;28;20016;-55
2022/06/06 05:39:52;;;;;;;4.47;3.97;;;;;;;21.55;51.40;101182.72;5089880;28;20048;-53
2022/06/06 05:42:49;;;;;;;8.32;4.72;;;;;;;21.55;51.33;101182.72;5088139;28;20043;-56
2022/06/06 05:45:33;;;;;;;4.97;4.00;;;;;;;21.56;51.24;101184.41;5103877;28;20426;-55
2022/06/06 05:48:20;;;;;;;4.22;3.78;;;;;;;21.55;51.31;101190.84;5107493;28;20149;-55
2022/06/06 05:51:23;;;;;;;5.10;4.10;;;;;;;21.54;51.40;101190.00;5106725;28;20024;-56
2022/06/06 05:54:04;;;;;;;5.72;4.03;;;;;;;21.55;51.53;101190.84;5091663;28;20020;-59
2022/06/06 05:56:33;;;;;;;3.80;3.40;;;;;;;21.54;51.31;101190.00;5093093;28;20020;-71
2022/06/06 05:59:12;;;;;;;7.07;4.25;;;;;;;21.55;51.30;101196.25;5087605;28;20027;-55
2022/06/06 06:02:18;;;;;;;7.35;4.97;;;;;;;21.55;51.63;101197.09;5087502;28;20046;-59
2022/06/06 06:05:01;;;;;;;5.70;4.80;;;;;;;21.56;51.32;101200.63;5107601;28;20035;-60
2022/06/06 06:07:48;;;;;;;5.57;4.40;;;;;;;21.56;51.43;101200.63;5109637;28;20020;-60
2022/06/06 06:10:22;;;;;;;5.32;4.05;;;;;;;21.56;51.31;101204.19;5107665;28;20051;-59
2022/06/06 06:13:15;;;;;;;5.10;4.57;;;;;;;21.57;51.29;101203.16;5097437;28;20027;-59
2022/06/06 06:15:43;;;;;;;5.47;4.40;;;;;;;21.57;51.22;101197.75;5107909;28;20074;-60
2022/06/06 06:18:16;;;;;;;4.85;4.30;;;;;;;21.58;51.61;101210.28;5110610;28;20016;-56
2022/06/06 06:20:45;;;;;;;5.30;4.50;;;;;;;21.58;51.28;101199.44;5112630;27;20024;-55
2022/06/06 06:23:14;;;;;;;4.95;4.40;;;;;;;21.61;51.50;101198.22;5092627;28;20024;-58
2022/06/06 06:25:40;;;;;;;5.32;4.18;;;;;;;21.61;51.15;101212.59;5098339;28;20027;-59
2022/06/06 06:28:08;;;;;;;4.50;3.90;;;;;;;21.62;51.07;101205.31;5117313;28;20059;-59
2022/06/06 06:30:56;;;;;;;5.18;3.95;;;;;;;21.64;51.12;101219.53;5091198;28;20028;-55
2022/06/06 06:33:27;;;;;;;6.40;4.53;;;;;;;21.65;51.14;101215.78;5111432;27;20456;-55
2022/06/06 06:35:58;;;;;;;5.65;4.15;;;;;;;21.67;51.39;101224.59;5109314;28;20092;-58
2022/06/06 06:38:38;;;;;;;6.70;4.07;;;;;;;21.66;51.29;101226.47;5111402;28;20027;-59
2022/06/06 06:41:14;;;;;;;4.70;4.20;;;;;;;21.67;51.10;101233.56;5088730;27;20109;-59
2022/06/06 06:44:08;;;;;;;5.68;4.40;;;;;;;21.68;51.44;101232.53;5108990;28;20024;-60
2022/06/06 06:46:40;;;;;;;7.05;4.57;;;;;;;21.70;51.25;101235.88;5110892;28;20096;-58
2022/06/06 06:49:14;;;;;;;5.28;4.22;;;;;;;21.73;51.27;101233.84;5106367;28;20031;-58
2022/06/06 06:52:13;;;;;;;5.85;4.70;;;;;;;21.73;51.44;101242.81;5086863;28;20036;-54
2022/06/06 06:54:53;;;;;;;5.25;4.57;;;;;;;21.76;51.20;101241.63;5108190;28;20056;-51
2022/06/06 06:57:50;;;;;;;6.38;4.85;;;;;;;21.77;51.05;101248.72;5105359;28;20027;-56
2022/06/06 07:00:21;;;;;;;6.68;5.15;;;;;;;21.77;51.33;101251.41;5087786;28;20028;-56
2022/06/06 07:09:59;;;;;;;5.47;4.57;;;;;;;21.79;51.04;101258.34;5103391;28;20050;-56
2022/06/06 07:12:33;;;;;;;4.72;4.20;;;;;;;21.78;51.28;101248.50;5107710;27;20044;-57
2022/06/06 07:15:07;;;;;;;5.55;4.05;;;;;;;21.80;50.91;101257.31;5115361;27;20491;-54
2022/06/06 07:17:35;;;;;;;4.63;4.10;;;;;;;21.79;51.18;101257.47;5093612;28;20028;-55
2022/06/06 07:20:05;;;;;;;;;;;;;;;21.81;50.84;101256.28;5110407;27;20058;-58
2022/06/06 07:22:59;;;;;;;4.03;3.42;;;;;;;21.81;50.82;101253.59;5109368;27;19908;-59
2022/06/06 07:25:21;;;;;;;4.85;3.67;;;;;;;21.81;50.70;101258.16;5095749;27;20491;-62
2022/06/06 07:27:47;;;;;;;4.68;4.05;;;;;;;21.77;51.14;101251.41;5108492;28;20027;-59
2022/06/06 07:30:12;;;;;;;4.18;3.78;;;;;;;21.82;51.21;101255.25;5110396;28;20035;-55
2022/06/06 07:33:11;;;;;;;5.63;3.95;;;;;;;21.82;50.90;101257.97;5110158;28;20023;-61
2022/06/06 07:35:42;;;;;;;4.20;3.47;;;;;;;21.83;51.02;101262.34;5091704;28;20026;-60
2022/06/06 07:38:43;;;;;;;4.20;3.22;;;;;;;21.84;50.94;101257.81;5088303;28;20059;-62
2022/06/06 07:41:15;;;;;;;5.72;4.38;;;;;;;21.83;51.00;101259.66;5033502;28;20079;-62
2022/06/06 07:43:58;;;;;;;4.53;3.75;;;;;;;21.84;51.00;101263.22;5013693;28;20535;-64
2022/06/06 07:46:43;;;;;;;4.28;3.20;;;;;;;21.83;50.96;101270.47;5015149;28;20522;-62
2022/06/06 07:49:18;;;;;;;3.97;3.42;;;;;;;21.83;51.16;101270.47;5027008;28;20095;-60
2022/06/06 07:51:50;;;;;;;4.38;3.35;;;;;;;21.83;50.81;101265.06;5038090;28;20079;-59
2022/06/06 07:54:42;;;;;;;4.60;3.20;;;;;;;21.81;51.02;101267.13;5033367;28;20072;-62
2022/06/06 07:58:11;;;;;;;4.22;3.08;;;;;;;21.83;51.12;101264.22;5034063;28;20040;-63
2022/06/06 08:00:37;;;;;;;4.28;3.30;;;;;;;21.80;50.96;101268.16;4996865;28;20094;-59
2022/06/06 08:03:18;;;;;;;4.28;3.10;;;;;;;21.83;50.66;101265.06;4981302;28;20054;-56
2022/06/06 08:06:14;;;;;;;3.90;3.13;;;;;;;21.83;50.97;101266.94;4990907;28;20053;-57
2022/06/06 08:08:50;;;;;;;4.22;3.20;;;;;;;21.82;50.84;101260.66;4989268;28;20041;-57
2022/06/06 08:11:43;;;;;;;4.35;2.83;;;;;;;21.83;51.09;101267.75;4994399;28;20057;-57
2022/06/06 08:14:34;;;;;;;3.75;3.03;;;;;;;21.82;50.53;101274.22;4990823;28;20182;-56
2022/06/06 08:17:26;;;;;;;3.53;3.03;;;;;;;21.81;50.76;101266.28;4988819;28;20518;-53
2022/06/06 08:19:57;;;;;;;3.10;2.80;;;;;;;21.81;50.73;101272.53;4997405;28;20064;-54
2022/06/06 08:22:24;;;;;;;4.10;2.92;;;;;;;21.81;50.70;101268.97;5015561;28;20510;-52
2022/06/06 08:24:53;;;;;;;3.80;2.88;;;;;;;21.81;50.90;101266.28;5013563;28;20057;-53
2022/06/06 08:27:19;;;;;;;3.95;2.78;;;;;;;21.80;50.77;101268.16;5019097;28;20071;-53
2022/06/06 08:29:46;;;;;;;3.92;3.08;;;;;;;21.78;50.91;101258.50;5017232;28;20029;-52
2022/06/06 08:32:12;;;;;;;4.55;2.78;;;;;;;21.79;51.04;101271.88;5026639;28;20052;-54
2022/06/06 08:34:38;;;;;;;2.80;2.35;;;;;;;21.79;50.96;101271.00;5034663;28;20045;-53
2022/06/06 08:37:13;;;;;;;3.28;2.88;;;;;;;21.78;50.91;101261.22;5033908;28;20050;-57
2022/06/06 08:39:51;;;;;;;3.38;2.80;;;;;;;21.77;51.08;101271.19;5033125;28;20050;-59
2022/06/06 08:42:38;;;;;;;5.05;2.80;;;;;;;21.77;50.88;101262.25;5031352;28;20117;-60
2022/06/06 08:45:21;;;;;;;3.33;2.78;;;;;;;21.76;50.81;101264.09;5035396;28;20068;-64
2022/06/06 08:47:56;;;;;;;3.28;2.70;;;;;;;21.77;50.99;101264.94;5032301;28;20026;-63
2022/06/06 08:50:46;;;;;;;3.45;3.13;;;;;;;21.75;51.18;101275.09;5033499;28;20038;-64
2022/06/06 08:53:43;;;;;;;3.30;2.88;;;;;;;21.76;50.79;101264.09;5015917;28;20041;-65
2022/06/06 08:56:31;;;;;;;3.28;2.67;;;;;;;21.75;50.82;101278.66;5044380;28;20055;-63
2022/06/06 08:59:21;;;;;;;2.85;2.28;;;;;;;21.75;51.00;101273.25;5107995;28;20024;-59
2022/06/06 09:02:19;;;;;;;5.25;3.10;;;;;;;21.75;51.02;101265.13;5111971;28;20030;-59
2022/06/06 09:05:05;;;;;;;3.67;2.75;;;;;;;21.75;50.89;101267.84;5023641;28;20144;-54
2022/06/06 09:07:52;;;;;;;3.10;2.60;;;;;;;21.77;51.12;101260.38;5019293;28;20064;-59
2022/06/06 09:10:51;;;;;;;2.85;2.25;;;;;;;21.78;50.71;101278.28;5026374;28;20054;-58
2022/06/06 09:13:29;;;;;;;2.88;2.30;;;;;;;21.79;50.41;101271.88;5027087;28;20057;-59
2022/06/06 09:16:32;;;;;;;5.93;2.45;;;;;;;21.82;50.77;101274.22;5025004;28;20033;-59
2022/06/06 09:19:15;;;;;;;2.78;2.00;;;;;;;21.82;50.59;101262.53;5019765;28;20051;-58
2022/06/06 09:21:57;;;;;;;3.33;2.05;;;;;;;21.82;50.44;101260.66;5022900;28;20068;-59
2022/06/06 09:24:26;;;;;;;5.35;2.35;;;;;;;21.84;50.52;101268.63;5037544;28;20031;-59
2022/06/06 09:26:54;;;;;;;2.83;2.25;;;;;;;21.84;50.37;101257.81;5028727;28;20046;-58
2022/06/06 09:29:41;;;;;;;2.13;1.88;;;;;;;21.84;50.49;101264.06;5036442;28;20030;-59
2022/06/06 09:32:18;;;;;;;2.63;2.15;;;;;;;21.85;50.52;101257.63;5025956;28;20061;-57
2022/06/06 09:35:07;;;;;;;4.00;2.50;;;;;;;21.87;50.54;101257.41;5017802;28;20040;-59
2022/06/06 09:37:39;;;;;;;;;;;;;;;21.85;50.52;101268.44;4998774;28;20029;-60
2022/06/06 09:40:32;;;;;;;3.40;2.03;;;;;;;21.86;50.33;101262.00;5044623;28;19920;-56
2022/06/06 09:43:29;;;;;;;2.20;1.70;;;;;;;21.85;50.81;101260.31;5103733;28;20032;-57
2022/06/06 09:46:13;;;;;;;3.50;1.98;;;;;;;21.86;50.60;101255.75;5091362;28;20077;-58
2022/06/06 09:49:02;;;;;;;3.00;2.00;;;;;;;21.88;50.66;101261.84;5109542;27;20035;-60
2022/06/06 09:51:57;;;;;;;3.42;2.05;;;;;;;21.90;50.42;101251.66;5103342;28;20118;-59
2022/06/06 10:00:51;;;;;;;2.05;1.80;;;;;;;21.95;50.37;101249.25;5118908;28;20082;-58
2022/06/06 10:03:54;;;;;;;2.65;1.95;;;;;;;21.95;50.48;101244.66;5109601;28;20031;-63
2022/06/06 10:06:28;;;;;;;3.05;2.00;;;;;;;21.96;50.07;101251.78;5105455;28;20111;-59
2022/06/06 10:09:14;;;;;;;1.95;1.73;;;;;;;21.96;50.27;101259.91;5113350;28;20020;-59
2022/06/06 10:12:12;;;;;;;2.72;2.05;;;;;;;21.96;50.45;101254.50;5107888;28;20020;-60
2022/06/06 10:15:08;;;;;;;2.17;1.90;;;;;;;21.99;50.28;101255.16;5099363;28;20047;-58
2022/06/06 10:17:43;;;;;;;2.83;1.83;;;;;;;21.99;50.35;101252.44;5092728;28;20038;-58
2022/06/06 10:20:28;;;;;;;2.53;1.80;;;;;;;21.96;50.20;101237.38;5088166;28;20056;-59
2022/06/06 10:22:59;;;;;;;2.35;1.60;;;;;;;22.01;50.28;101242.28;5108398;28;20027;-59
2022/06/06 10:25:25;;;;;;;2.28;1.67;;;;;;;21.99;50.21;101234.31;5110174;28;20031;-58
2022/06/06 10:28:17;;;;;;;2.58;1.80;;;;;;;22.02;50.07;101244.81;5107590;28;20047;-59
2022/06/06 10:30:49;;;;;;;2.20;1.48;;;;;;;22.03;50.27;101234.81;5107653;28;20024;-59
2022/06/06 10:33:29;;;;;;;1.95;1.60;;;;;;;22.05;50.39;101258.00;5109893;28;20020;-58
2022/06/06 10:36:20;;;;;;;2.03;1.70;;;;;;;22.07;49.99;101242.38;5107958;28;20016;-59
2022/06/06 10:39:17;;;;;;;2.30;1.80;;;;;;;22.09;50.15;101239.50;5091079;28;20076;-59
2022/06/06 10:42:08;;;;;;;2.85;1.60;;;;;;;22.10;50.04;101246.59;5102101;28;20056;-59
2022/06/06 10:44:57;;;;;;;2.63;1.52;;;;;;;22.10;50.11;101243.91;5104898;28;20032;-60
2022/06/06 10:47:59;;;;;;;3.35;1.50;;;;;;;22.09;49.91;101245.78;5104738;28;20024;-59
2022/06/06 10:53:50;;;;;;;2.22;1.52;;;;;;;22.11;50.09;101245.56;5093065;28;20030;-61
2022/06/06 10:56:37;;;;;;;2.50;1.70;;;;;;;22.13;50.01;101243.56;5087851;28;20024;-59
2022/06/06 10:59:24;;;;;;;4.18;1.63;;;;;;;22.16;49.94;101251.31;5110245;28;20055;-58
2022/06/06 11:02:18;;;;;;;3.15;1.70;;;;;;;22.16;50.01;101244.03;5103742;28;20031;-57
2022/06/06 11:04:55;;;;;;;2.33;1.50;;;;;;;22.19;50.04;101238.25;5106077;28;20056;-62
2022/06/06 11:07:33;;;;;;;3.03;1.95;;;;;;;22.20;49.81;101230.97;5113404;28;20108;-59
2022/06/06 11:10:13;;;;;;;1.90;1.42;;;;;;;22.23;49.92;101224.34;5107082;28;20020;-61
2022/06/06 11:13:11;;;;;;;3.53;2.05;;;;;;;22.24;50.04;101228.75;5103135;28;20031;-60
2022/06/06 11:15:57;;;;;;;3.38;1.95;;;;;;;22.24;50.04;101228.75;5070422;28;20064;-61
2022/06/06 11:18:49;;;;;;;1.65;1.40;;;;;;;22.25;49.77;101217.72;5089354;28;20037;-56
2022/06/06 11:21:26;;;;;;;3.83;1.52;;;;;;;22.24;49.94;101216.03;5111657;28;20015;-59
2022/06/06 11:24:09;;;;;;;3.78;1.70;;;;;;;22.23;49.82;101219.78;5085465;28;20035;-56
2022/06/06 11:26:53;;;;;;;2.05;1.50;;;;;;;22.22;49.83;101209.97;5116047;28;20020;-56
2022/06/06 11:29:30;;;;;;;1.92;1.52;;;;;;;22.20;49.67;101223.69;5105209;28;20020;-55
2022/06/06 11:32:32;;;;;;;2.65;1.42;;;;;;;22.19;50.01;101234.72;5109190;28;20468;-58
2022/06/06 11:35:08;;;;;;;2.67;1.70;;;;;;;22.17;49.98;101223.19;5089358;28;20031;-58
2022/06/06 11:37:54;;;;;;;3.10;1.60;;;;;;;22.16;50.11;101230.50;5101987;28;20028;-58
2022/06/06 11:40:58;;;;;;;1.80;1.38;;;;;;;22.14;50.19;101224.44;5070429;28;1057370;-57
2022/06/06 11:43:58;;;;;;;2.45;1.75;;;;;;;22.14;50.44;101226.31;5110742;28;20095;-57
2022/06/06 11:46:46;;;;;;;2.33;1.75;;;;;;;22.13;50.29;101211.06;5108046;28;20372;-59
2022/06/06 11:49:34;;;;;;;3.05;1.90;;;;;;;22.13;50.39;101206.50;5109075;28;20089;-56
2022/06/06 11:52:02;;;;;;;;;;;;;;;22.12;50.55;101206.63;5092486;28;20020;-58
2022/06/06 11:55:24;;;;;;;2.53;1.77;;;;;;;22.13;50.41;101205.63;5107620;28;19908;-58
2022/06/06 11:57:49;;;;;;;1.90;1.60;;;;;;;22.08;50.68;101205.31;5016039;28;20422;-58
2022/06/06 12:00:28;;;;;;;1.88;1.70;;;;;;;22.07;50.83;101212.59;5019389;28;20637;-58
2022/06/06 12:03:02;;;;;;;1.88;1.33;;;;;;;22.07;50.46;101223.44;5019970;28;20117;-58
2022/06/06 12:06:09;;;;;;;2.00;1.40;;;;;;;22.08;50.63;101232.41;5016546;28;20042;-59
2022/06/06 12:09:13;;;;;;;2.05;1.67;;;;;;;22.06;50.60;101284.03;5017867;28;20043;-60
2022/06/06 12:12:03;;;;;;;2.10;1.50;;;;;;;22.06;50.32;101281.31;5008002;28;20045;-58
2022/06/06 12:14:50;;;;;;;2.30;1.48;;;;;;;22.07;50.44;101257.78;5019674;28;20033;-55
2022/06/06 12:17:52;;;;;;;1.75;1.40;;;;;;;22.07;50.35;101253.22;5021823;28;20082;-57
2022/06/06 12:21:12;;;;;;;2.45;1.73;;;;;;;22.08;50.30;101240.53;5017504;28;20033;-56
2022/06/06 12:24:11;;;;;;;3.15;1.70;;;;;;;22.09;50.54;101232.22;4957021;29;20584;-56
2022/06/06 12:27:00;;;;;;;1.70;1.45;;;;;;;22.11;50.59;101226.63;4956389;28;20027;-56
2022/06/06 12:30:01;;;;;;;2.42;1.70;;;;;;;22.13;50.34;101221.88;4955867;29;20072;-55
2022/06/06 12:32:47;;;;;;;2.20;1.55;;;;;;;22.13;50.42;101214.63;4956887;28;20054;-57
2022/06/06 12:35:23;;;;;;;1.80;1.20;;;;;;;22.15;50.41;101206.31;4973567;28;20058;-54
2022/06/06 12:37:53;;;;;;;2.38;1.48;;;;;;;22.16;50.51;101208.81;4972842;28;20060;-56
2022/06/06 12:40:22;;;;;;;1.83;1.40;;;;;;;22.16;50.56;101205.28;4960701;28;20042;-56
2022/06/06 12:42:47;;;;;;;1.90;1.50;;;;;;;22.17;50.31;101213.25;4957142;28;20707;-56
2022/06/06 12:45:34;;;;;;;1.52;1.33;;;;;;;22.18;50.66;101203.25;4967760;28;20675;-54